sensor_id;sensor_type;location;lat;lon;timestamp;P1;durP1;ratioP1;P2;durP2;ratioP2
39094;SDS011;24840;47.508;19.376;2023-06-10T00:00:13;6.38;;;2.33;;
39094;SDS011;24840;47.508;19.376;2023-06-10T00:02:40;7.72;;;2.38;;
39094;SDS011;24840;47.508;19.376;2023-06-10T00:05:06;13.70;;;3.15;;
39094;SDS011;24840;47.508;19.376;2023-06-10T00:07:36;15.38;;;2.55;;
39094;SDS011;24840;47.508;19.376;2023-06-10T00:10:06;7.80;;;2.00;;
39094;SDS011;24840;47.508;19.376;2023-06-10T00:12:32;7.25;;;2.80;;
39094;SDS011;24840;47.508;19.376;2023-06-10T00:15:02;4.63;;;2.40;;
39094;SDS011;24840;47.508;19.376;2023-06-10T00:17:31;6.88;;;3.00;;
39094;SDS011;24840;47.508;19.376;2023-06-10T00:19:58;13.43;;;3.15;;
39094;SDS011;24840;47.508;19.376;2023-06-10T00:22:23;9.00;;;3.30;;
39094;SDS011;24840;47.508;19.376;2023-06-10T00:24:54;4.82;;;2.88;;
39094;SDS011;24840;47.508;19.376;2023-06-10T00:27:21;7.05;;;3.63;;
39094;SDS011;24840;47.508;19.376;2023-06-10T00:29:47;8.60;;;3.28;;
39094;SDS011;24840;47.508;19.376;2023-06-10T00:32:13;5.78;;;2.80;;
39094;SDS011;24840;47.508;19.376;2023-06-10T00:34:38;11.63;;;4.18;;
39094;SDS011;24840;47.508;19.376;2023-06-10T00:37:04;7.00;;;3.50;;
39094;SDS011;24840;47.508;19.376;2023-06-10T00:39:30;9.55;;;3.25;;
39094;SDS011;24840;47.508;19.376;2023-06-10T00:41:56;3.38;;;2.60;;
39094;SDS011;24840;47.508;19.376;2023-06-10T00:44:21;7.30;;;2.85;;
39094;SDS011;24840;47.508;19.376;2023-06-10T00:46:47;5.00;;;3.10;;
39094;SDS011;24840;47.508;19.376;2023-06-10T00:49:16;7.00;;;3.63;;
39094;SDS011;24840;47.508;19.376;2023-06-10T00:51:42;13.52;;;3.45;;
39094;SDS011;24840;47.508;19.376;2023-06-10T00:54:07;10.65;;;3.17;;
39094;SDS011;24840;47.508;19.376;2023-06-10T00:56:34;14.23;;;3.80;;
39094;SDS011;24840;47.508;19.376;2023-06-10T00:59:01;12.50;;;3.40;;
39094;SDS011;24840;47.508;19.376;2023-06-10T01:01:28;8.43;;;2.92;;
39094;SDS011;24840;47.508;19.376;2023-06-10T01:03:54;13.05;;;2.92;;
39094;SDS011;24840;47.508;19.376;2023-06-10T01:09:18;24.83;;;4.30;;
39094;SDS011;24840;47.508;19.376;2023-06-10T01:12:12;17.52;;;3.95;;
39094;SDS011;24840;47.508;19.376;2023-06-10T01:14:51;10.07;;;3.25;;
39094;SDS011;24840;47.508;19.376;2023-06-10T01:17:18;13.10;;;3.63;;
39094;SDS011;24840;47.508;19.376;2023-06-10T01:19:44;19.13;;;3.45;;
39094;SDS011;24840;47.508;19.376;2023-06-10T01:22:18;10.55;;;3.10;;
39094;SDS011;24840;47.508;19.376;2023-06-10T01:24:43;9.25;;;3.60;;
39094;SDS011;24840;47.508;19.376;2023-06-10T01:27:12;7.00;;;3.35;;
39094;SDS011;24840;47.508;19.376;2023-06-10T01:29:42;20.20;;;4.13;;
39094;SDS011;24840;47.508;19.376;2023-06-10T01:32:15;17.92;;;3.45;;
39094;SDS011;24840;47.508;19.376;2023-06-10T01:34:45;6.05;;;2.80;;
39094;SDS011;24840;47.508;19.376;2023-06-10T01:37:13;4.85;;;3.50;;
39094;SDS011;24840;47.508;19.376;2023-06-10T01:39:42;21.20;;;3.70;;
39094;SDS011;24840;47.508;19.376;2023-06-10T01:42:10;12.05;;;4.03;;
39094;SDS011;24840;47.508;19.376;2023-06-10T01:44:39;16.73;;;4.30;;
39094;SDS011;24840;47.508;19.376;2023-06-10T01:47:05;15.63;;;4.50;;
39094;SDS011;24840;47.508;19.376;2023-06-10T01:49:31;7.53;;;4.13;;
39094;SDS011;24840;47.508;19.376;2023-06-10T01:51:56;6.80;;;4.15;;
39094;SDS011;24840;47.508;19.376;2023-06-10T01:54:22;10.18;;;4.63;;
39094;SDS011;24840;47.508;19.376;2023-06-10T01:56:48;9.63;;;4.80;;
39094;SDS011;24840;47.508;19.376;2023-06-10T01:59:13;12.10;;;3.97;;
39094;SDS011;24840;47.508;19.376;2023-06-10T02:01:40;18.35;;;4.78;;
39094;SDS011;24840;47.508;19.376;2023-06-10T02:04:06;11.55;;;4.40;;
39094;SDS011;24840;47.508;19.376;2023-06-10T02:06:32;13.77;;;4.80;;
39094;SDS011;24840;47.508;19.376;2023-06-10T02:08:58;11.68;;;3.60;;
39094;SDS011;24840;47.508;19.376;2023-06-10T02:11:23;12.90;;;4.40;;
39094;SDS011;24840;47.508;19.376;2023-06-10T02:13:49;17.80;;;5.13;;
39094;SDS011;24840;47.508;19.376;2023-06-10T02:16:15;14.15;;;4.20;;
39094;SDS011;24840;47.508;19.376;2023-06-10T02:18:42;13.00;;;4.82;;
39094;SDS011;24840;47.508;19.376;2023-06-10T02:21:11;7.47;;;4.30;;
39094;SDS011;24840;47.508;19.376;2023-06-10T02:23:37;13.70;;;4.63;;
39094;SDS011;24840;47.508;19.376;2023-06-10T02:26:02;12.57;;;3.90;;
39094;SDS011;24840;47.508;19.376;2023-06-10T02:28:28;8.82;;;4.40;;
39094;SDS011;24840;47.508;19.376;2023-06-10T02:30:54;11.57;;;4.20;;
39094;SDS011;24840;47.508;19.376;2023-06-10T02:33:19;11.68;;;4.38;;
39094;SDS011;24840;47.508;19.376;2023-06-10T02:35:45;10.32;;;3.95;;
39094;SDS011;24840;47.508;19.376;2023-06-10T02:38:11;5.90;;;3.78;;
39094;SDS011;24840;47.508;19.376;2023-06-10T02:40:36;7.15;;;4.03;;
39094;SDS011;24840;47.508;19.376;2023-06-10T02:43:02;6.65;;;3.88;;
39094;SDS011;24840;47.508;19.376;2023-06-10T02:45:28;5.93;;;3.80;;
39094;SDS011;24840;47.508;19.376;2023-06-10T02:47:54;6.53;;;3.45;;
39094;SDS011;24840;47.508;19.376;2023-06-10T02:50:20;4.72;;;4.15;;
39094;SDS011;24840;47.508;19.376;2023-06-10T02:52:45;7.97;;;4.10;;
39094;SDS011;24840;47.508;19.376;2023-06-10T02:55:11;5.63;;;3.67;;
39094;SDS011;24840;47.508;19.376;2023-06-10T02:57:37;5.00;;;3.78;;
39094;SDS011;24840;47.508;19.376;2023-06-10T03:00:03;4.63;;;3.70;;
39094;SDS011;24840;47.508;19.376;2023-06-10T03:02:34;8.50;;;3.78;;
39094;SDS011;24840;47.508;19.376;2023-06-10T03:05:03;4.35;;;3.83;;
39094;SDS011;24840;47.508;19.376;2023-06-10T03:07:30;8.18;;;3.58;;
39094;SDS011;24840;47.508;19.376;2023-06-10T03:09:56;12.80;;;4.47;;
39094;SDS011;24840;47.508;19.376;2023-06-10T03:12:21;8.50;;;4.28;;
39094;SDS011;24840;47.508;19.376;2023-06-10T03:14:47;7.32;;;3.53;;
39094;SDS011;24840;47.508;19.376;2023-06-10T03:17:13;3.63;;;2.80;;
39094;SDS011;24840;47.508;19.376;2023-06-10T03:19:38;6.35;;;3.67;;
39094;SDS011;24840;47.508;19.376;2023-06-10T03:22:08;3.78;;;3.13;;
39094;SDS011;24840;47.508;19.376;2023-06-10T03:24:38;8.43;;;4.15;;
39094;SDS011;24840;47.508;19.376;2023-06-10T03:27:07;6.15;;;3.83;;
39094;SDS011;24840;47.508;19.376;2023-06-10T03:29:34;12.77;;;4.43;;
39094;SDS011;24840;47.508;19.376;2023-06-10T03:32:01;6.25;;;4.20;;
39094;SDS011;24840;47.508;19.376;2023-06-10T03:34:26;6.38;;;3.92;;
39094;SDS011;24840;47.508;19.376;2023-06-10T03:36:52;4.63;;;4.22;;
39094;SDS011;24840;47.508;19.376;2023-06-10T03:39:18;36.38;;;6.10;;
39094;SDS011;24840;47.508;19.376;2023-06-10T03:41:44;49.28;;;6.63;;
39094;SDS011;24840;47.508;19.376;2023-06-10T03:44:10;58.05;;;7.95;;
39094;SDS011;24840;47.508;19.376;2023-06-10T03:46:36;9.82;;;4.72;;
39094;SDS011;24840;47.508;19.376;2023-06-10T03:49:01;7.13;;;4.53;;
39094;SDS011;24840;47.508;19.376;2023-06-10T03:51:28;14.45;;;6.18;;
39094;SDS011;24840;47.508;19.376;2023-06-10T03:53:54;9.57;;;5.32;;
39094;SDS011;24840;47.508;19.376;2023-06-10T03:56:20;9.68;;;6.70;;
39094;SDS011;24840;47.508;19.376;2023-06-10T03:58:45;6.80;;;6.18;;
39094;SDS011;24840;47.508;19.376;2023-06-10T04:01:11;9.50;;;6.07;;
39094;SDS011;24840;47.508;19.376;2023-06-10T04:03:38;11.18;;;7.20;;
39094;SDS011;24840;47.508;19.376;2023-06-10T04:06:08;20.00;;;6.38;;
39094;SDS011;24840;47.508;19.376;2023-06-10T04:08:34;8.70;;;6.28;;
39094;SDS011;24840;47.508;19.376;2023-06-10T04:11:01;14.68;;;6.82;;
39094;SDS011;24840;47.508;19.376;2023-06-10T04:13:27;11.93;;;6.60;;
39094;SDS011;24840;47.508;19.376;2023-06-10T04:15:53;6.18;;;5.60;;
39094;SDS011;24840;47.508;19.376;2023-06-10T04:18:19;82.75;;;13.32;;
39094;SDS011;24840;47.508;19.376;2023-06-10T04:20:46;10.13;;;6.57;;
39094;SDS011;24840;47.508;19.376;2023-06-10T04:23:12;331.67;;;32.75;;
39094;SDS011;24840;47.508;19.376;2023-06-10T04:25:38;330.15;;;32.72;;
39094;SDS011;24840;47.508;19.376;2023-06-10T04:28:03;19.38;;;6.85;;
39094;SDS011;24840;47.508;19.376;2023-06-10T04:30:29;9.60;;;6.03;;
39094;SDS011;24840;47.508;19.376;2023-06-10T04:32:56;7.93;;;6.75;;
39094;SDS011;24840;47.508;19.376;2023-06-10T04:35:22;10.82;;;6.30;;
39094;SDS011;24840;47.508;19.376;2023-06-10T04:37:48;14.98;;;7.28;;
39094;SDS011;24840;47.508;19.376;2023-06-10T04:40:13;9.90;;;8.88;;
39094;SDS011;24840;47.508;19.376;2023-06-10T04:42:40;9.05;;;7.80;;
39094;SDS011;24840;47.508;19.376;2023-06-10T04:45:06;11.02;;;9.48;;
39094;SDS011;24840;47.508;19.376;2023-06-10T04:47:33;12.35;;;8.90;;
39094;SDS011;24840;47.508;19.376;2023-06-10T04:49:59;11.27;;;10.10;;
39094;SDS011;24840;47.508;19.376;2023-06-10T04:52:28;11.18;;;9.57;;
39094;SDS011;24840;47.508;19.376;2023-06-10T04:54:54;10.27;;;9.27;;
39094;SDS011;24840;47.508;19.376;2023-06-10T04:57:20;10.25;;;8.23;;
39094;SDS011;24840;47.508;19.376;2023-06-10T04:59:46;8.95;;;8.07;;
39094;SDS011;24840;47.508;19.376;2023-06-10T05:02:12;8.32;;;7.63;;
39094;SDS011;24840;47.508;19.376;2023-06-10T05:04:38;8.88;;;7.65;;
39094;SDS011;24840;47.508;19.376;2023-06-10T05:07:04;18.88;;;8.07;;
39094;SDS011;24840;47.508;19.376;2023-06-10T05:09:30;13.15;;;7.80;;
39094;SDS011;24840;47.508;19.376;2023-06-10T05:11:56;9.50;;;7.28;;
39094;SDS011;24840;47.508;19.376;2023-06-10T05:14:22;11.38;;;8.13;;
39094;SDS011;24840;47.508;19.376;2023-06-10T05:16:48;12.13;;;8.48;;
39094;SDS011;24840;47.508;19.376;2023-06-10T05:19:14;9.88;;;8.90;;
39094;SDS011;24840;47.508;19.376;2023-06-10T05:21:41;12.05;;;8.15;;
39094;SDS011;24840;47.508;19.376;2023-06-10T05:24:07;8.20;;;7.50;;
39094;SDS011;24840;47.508;19.376;2023-06-10T05:26:33;15.75;;;8.50;;
39094;SDS011;24840;47.508;19.376;2023-06-10T05:29:02;12.10;;;8.10;;
39094;SDS011;24840;47.508;19.376;2023-06-10T05:31:28;119.18;;;17.90;;
39094;SDS011;24840;47.508;19.376;2023-06-10T05:33:54;8.90;;;8.00;;
39094;SDS011;24840;47.508;19.376;2023-06-10T05:36:20;12.63;;;8.65;;
39094;SDS011;24840;47.508;19.376;2023-06-10T05:38:46;10.95;;;8.82;;
39094;SDS011;24840;47.508;19.376;2023-06-10T05:41:11;10.40;;;8.18;;
39094;SDS011;24840;47.508;19.376;2023-06-10T05:43:37;12.50;;;7.85;;
39094;SDS011;24840;47.508;19.376;2023-06-10T05:46:03;12.63;;;9.25;;
39094;SDS011;24840;47.508;19.376;2023-06-10T05:48:29;12.73;;;9.80;;
39094;SDS011;24840;47.508;19.376;2023-06-10T05:50:54;10.32;;;8.93;;
39094;SDS011;24840;47.508;19.376;2023-06-10T05:53:20;19.88;;;10.88;;
39094;SDS011;24840;47.508;19.376;2023-06-10T05:55:46;15.20;;;11.43;;
39094;SDS011;24840;47.508;19.376;2023-06-10T05:58:12;19.40;;;13.98;;
39094;SDS011;24840;47.508;19.376;2023-06-10T06:00:39;19.77;;;13.75;;
39094;SDS011;24840;47.508;19.376;2023-06-10T06:03:07;33.22;;;17.88;;
39094;SDS011;24840;47.508;19.376;2023-06-10T06:05:34;25.17;;;17.10;;
39094;SDS011;24840;47.508;19.376;2023-06-10T06:08:03;27.00;;;18.95;;
39094;SDS011;24840;47.508;19.376;2023-06-10T06:10:30;29.73;;;19.73;;
39094;SDS011;24840;47.508;19.376;2023-06-10T06:12:55;28.35;;;20.83;;
39094;SDS011;24840;47.508;19.376;2023-06-10T06:15:22;30.08;;;20.73;;
39094;SDS011;24840;47.508;19.376;2023-06-10T06:17:48;28.15;;;21.17;;
39094;SDS011;24840;47.508;19.376;2023-06-10T06:20:14;30.00;;;21.73;;
39094;SDS011;24840;47.508;19.376;2023-06-10T06:22:39;30.20;;;23.85;;
39094;SDS011;24840;47.508;19.376;2023-06-10T06:25:05;31.40;;;25.02;;
39094;SDS011;24840;47.508;19.376;2023-06-10T06:27:31;27.15;;;22.73;;
39094;SDS011;24840;47.508;19.376;2023-06-10T06:29:57;33.33;;;29.67;;
39094;SDS011;24840;47.508;19.376;2023-06-10T06:32:23;33.55;;;26.95;;
39094;SDS011;24840;47.508;19.376;2023-06-10T06:34:51;25.77;;;22.23;;
39094;SDS011;24840;47.508;19.376;2023-06-10T06:37:20;28.58;;;23.85;;
39094;SDS011;24840;47.508;19.376;2023-06-10T06:39:47;23.83;;;20.50;;
39094;SDS011;24840;47.508;19.376;2023-06-10T06:42:13;26.67;;;23.83;;
39094;SDS011;24840;47.508;19.376;2023-06-10T06:44:39;23.95;;;21.50;;
39094;SDS011;24840;47.508;19.376;2023-06-10T06:47:05;23.30;;;20.83;;
39094;SDS011;24840;47.508;19.376;2023-06-10T06:49:31;25.13;;;21.15;;
39094;SDS011;24840;47.508;19.376;2023-06-10T06:51:57;26.45;;;23.30;;
39094;SDS011;24840;47.508;19.376;2023-06-10T06:54:22;24.10;;;21.80;;
39094;SDS011;24840;47.508;19.376;2023-06-10T06:56:48;25.55;;;22.88;;
39094;SDS011;24840;47.508;19.376;2023-06-10T06:59:15;24.20;;;21.83;;
39094;SDS011;24840;47.508;19.376;2023-06-10T07:01:44;25.45;;;23.00;;
39094;SDS011;24840;47.508;19.376;2023-06-10T07:04:11;25.17;;;22.30;;
39094;SDS011;24840;47.508;19.376;2023-06-10T07:06:36;26.10;;;23.67;;
39094;SDS011;24840;47.508;19.376;2023-06-10T07:09:03;26.25;;;23.75;;
39094;SDS011;24840;47.508;19.376;2023-06-10T07:11:29;26.02;;;23.52;;
39094;SDS011;24840;47.508;19.376;2023-06-10T07:13:55;25.27;;;22.98;;
39094;SDS011;24840;47.508;19.376;2023-06-10T07:16:21;25.67;;;23.08;;
39094;SDS011;24840;47.508;19.376;2023-06-10T07:18:47;25.98;;;22.83;;
39094;SDS011;24840;47.508;19.376;2023-06-10T07:21:13;23.92;;;21.85;;
39094;SDS011;24840;47.508;19.376;2023-06-10T07:23:42;22.08;;;20.20;;
39094;SDS011;24840;47.508;19.376;2023-06-10T07:26:08;22.98;;;20.98;;
39094;SDS011;24840;47.508;19.376;2023-06-10T07:28:36;26.80;;;22.55;;
39094;SDS011;24840;47.508;19.376;2023-06-10T07:31:05;25.90;;;23.52;;
39094;SDS011;24840;47.508;19.376;2023-06-10T07:33:31;23.30;;;21.27;;
39094;SDS011;24840;47.508;19.376;2023-06-10T07:35:57;22.60;;;20.20;;
39094;SDS011;24840;47.508;19.376;2023-06-10T07:38:24;23.73;;;21.58;;
39094;SDS011;24840;47.508;19.376;2023-06-10T07:40:50;21.90;;;19.95;;
39094;SDS011;24840;47.508;19.376;2023-06-10T07:43:16;23.25;;;21.35;;
39094;SDS011;24840;47.508;19.376;2023-06-10T07:45:42;23.45;;;21.35;;
39094;SDS011;24840;47.508;19.376;2023-06-10T07:48:08;25.83;;;23.42;;
39094;SDS011;24840;47.508;19.376;2023-06-10T07:50:34;24.67;;;22.48;;
39094;SDS011;24840;47.508;19.376;2023-06-10T07:53:00;25.15;;;22.67;;
39094;SDS011;24840;47.508;19.376;2023-06-10T07:55:26;26.10;;;23.30;;
39094;SDS011;24840;47.508;19.376;2023-06-10T07:57:52;24.92;;;22.75;;
39094;SDS011;24840;47.508;19.376;2023-06-10T08:00:19;22.55;;;20.65;;
39094;SDS011;24840;47.508;19.376;2023-06-10T08:02:45;20.92;;;19.20;;
39094;SDS011;24840;47.508;19.376;2023-06-10T08:05:11;22.17;;;20.17;;
39094;SDS011;24840;47.508;19.376;2023-06-10T08:07:37;21.50;;;19.33;;
39094;SDS011;24840;47.508;19.376;2023-06-10T08:10:04;22.55;;;20.73;;
39094;SDS011;24840;47.508;19.376;2023-06-10T08:12:31;25.05;;;21.95;;
39094;SDS011;24840;47.508;19.376;2023-06-10T08:14:58;20.13;;;18.25;;
39094;SDS011;24840;47.508;19.376;2023-06-10T08:17:24;22.65;;;20.67;;
39094;SDS011;24840;47.508;19.376;2023-06-10T08:19:50;19.75;;;17.90;;
39094;SDS011;24840;47.508;19.376;2023-06-10T08:22:16;22.17;;;19.95;;
39094;SDS011;24840;47.508;19.376;2023-06-10T08:24:41;21.92;;;19.90;;
39094;SDS011;24840;47.508;19.376;2023-06-10T08:27:07;17.23;;;15.60;;
39094;SDS011;24840;47.508;19.376;2023-06-10T08:29:33;18.42;;;16.67;;
39094;SDS011;24840;47.508;19.376;2023-06-10T08:31:59;16.02;;;14.52;;
39094;SDS011;24840;47.508;19.376;2023-06-10T08:34:25;14.57;;;13.45;;
39094;SDS011;24840;47.508;19.376;2023-06-10T08:36:51;12.20;;;11.10;;
39094;SDS011;24840;47.508;19.376;2023-06-10T08:39:18;12.23;;;11.07;;
39094;SDS011;24840;47.508;19.376;2023-06-10T08:41:45;10.20;;;8.85;;
39094;SDS011;24840;47.508;19.376;2023-06-10T08:44:28;11.63;;;9.70;;
39094;SDS011;24840;47.508;19.376;2023-06-10T08:47:01;9.80;;;8.98;;
39094;SDS011;24840;47.508;19.376;2023-06-10T08:49:34;8.05;;;6.10;;
39094;SDS011;24840;47.508;19.376;2023-06-10T08:52:06;8.80;;;5.38;;
39094;SDS011;24840;47.508;19.376;2023-06-10T08:54:33;5.45;;;4.82;;
39094;SDS011;24840;47.508;19.376;2023-06-10T08:57:02;4.75;;;4.35;;
39094;SDS011;24840;47.508;19.376;2023-06-10T08:59:33;5.85;;;5.32;;
39094;SDS011;24840;47.508;19.376;2023-06-10T09:01:59;9.38;;;4.72;;
39094;SDS011;24840;47.508;19.376;2023-06-10T09:04:27;4.75;;;4.35;;
39094;SDS011;24840;47.508;19.376;2023-06-10T09:06:53;4.90;;;4.38;;
39094;SDS011;24840;47.508;19.376;2023-06-10T09:09:20;6.18;;;3.80;;
39094;SDS011;24840;47.508;19.376;2023-06-10T09:11:47;6.50;;;4.13;;
39094;SDS011;24840;47.508;19.376;2023-06-10T09:14:13;3.78;;;3.47;;
39094;SDS011;24840;47.508;19.376;2023-06-10T09:16:39;6.13;;;4.15;;
39094;SDS011;24840;47.508;19.376;2023-06-10T09:19:06;4.22;;;3.60;;
39094;SDS011;24840;47.508;19.376;2023-06-10T09:21:35;6.25;;;4.10;;
39094;SDS011;24840;47.508;19.376;2023-06-10T09:24:01;7.78;;;3.38;;
39094;SDS011;24840;47.508;19.376;2023-06-10T09:26:27;7.10;;;3.17;;
39094;SDS011;24840;47.508;19.376;2023-06-10T09:29:04;9.25;;;4.40;;
39094;SDS011;24840;47.508;19.376;2023-06-10T09:31:36;10.70;;;4.35;;
39094;SDS011;24840;47.508;19.376;2023-06-10T09:34:09;4.88;;;3.95;;
39094;SDS011;24840;47.508;19.376;2023-06-10T09:36:36;4.10;;;3.70;;
39094;SDS011;24840;47.508;19.376;2023-06-10T09:39:03;5.85;;;4.15;;
39094;SDS011;24840;47.508;19.376;2023-06-10T09:41:33;6.00;;;4.13;;
39094;SDS011;24840;47.508;19.376;2023-06-10T09:44:00;4.97;;;4.15;;
39094;SDS011;24840;47.508;19.376;2023-06-10T09:46:30;6.32;;;4.18;;
39094;SDS011;24840;47.508;19.376;2023-06-10T09:48:58;6.53;;;4.18;;
39094;SDS011;24840;47.508;19.376;2023-06-10T09:51:24;5.72;;;4.55;;
39094;SDS011;24840;47.508;19.376;2023-06-10T09:53:53;7.65;;;5.65;;
39094;SDS011;24840;47.508;19.376;2023-06-10T09:56:19;5.50;;;5.00;;
39094;SDS011;24840;47.508;19.376;2023-06-10T09:58:49;19.83;;;8.40;;
39094;SDS011;24840;47.508;19.376;2023-06-10T10:01:18;33.97;;;13.43;;
39094;SDS011;24840;47.508;19.376;2023-06-10T10:03:51;8.57;;;6.10;;
39094;SDS011;24840;47.508;19.376;2023-06-10T10:06:17;6.18;;;5.60;;
39094;SDS011;24840;47.508;19.376;2023-06-10T10:08:44;6.13;;;5.13;;
39094;SDS011;24840;47.508;19.376;2023-06-10T10:11:11;7.90;;;5.15;;
39094;SDS011;24840;47.508;19.376;2023-06-10T10:13:39;6.25;;;5.25;;
39094;SDS011;24840;47.508;19.376;2023-06-10T10:16:16;19.55;;;8.25;;
39094;SDS011;24840;47.508;19.376;2023-06-10T10:19:04;6.85;;;6.25;;
39094;SDS011;24840;47.508;19.376;2023-06-10T10:21:54;9.38;;;6.22;;
39094;SDS011;24840;47.508;19.376;2023-06-10T10:24:36;6.85;;;6.20;;
39094;SDS011;24840;47.508;19.376;2023-06-10T10:27:13;6.93;;;6.22;;
39094;SDS011;24840;47.508;19.376;2023-06-10T10:32:12;6.07;;;5.43;;
39094;SDS011;24840;47.508;19.376;2023-06-10T10:37:43;7.57;;;5.65;;
39094;SDS011;24840;47.508;19.376;2023-06-10T10:40:09;6.10;;;5.60;;
39094;SDS011;24840;47.508;19.376;2023-06-10T10:42:36;7.18;;;4.75;;
39094;SDS011;24840;47.508;19.376;2023-06-10T10:45:03;6.80;;;5.07;;
39094;SDS011;24840;47.508;19.376;2023-06-10T10:47:30;5.13;;;4.45;;
39094;SDS011;24840;47.508;19.376;2023-06-10T10:49:58;16.52;;;5.00;;
39094;SDS011;24840;47.508;19.376;2023-06-10T10:52:25;4.68;;;4.28;;
39094;SDS011;24840;47.508;19.376;2023-06-10T10:54:53;6.95;;;4.30;;
39094;SDS011;24840;47.508;19.376;2023-06-10T10:57:20;6.38;;;4.70;;
39094;SDS011;24840;47.508;19.376;2023-06-10T11:05:08;5.85;;;4.97;;
39094;SDS011;24840;47.508;19.376;2023-06-10T11:07:51;5.38;;;4.75;;
39094;SDS011;24840;47.508;19.376;2023-06-10T11:10:28;4.32;;;3.92;;
39094;SDS011;24840;47.508;19.376;2023-06-10T11:12:56;5.13;;;4.18;;
39094;SDS011;24840;47.508;19.376;2023-06-10T11:15:26;6.25;;;4.72;;
39094;SDS011;24840;47.508;19.376;2023-06-10T11:18:12;3.73;;;3.37;;
39094;SDS011;24840;47.508;19.376;2023-06-10T11:31:57;11.30;;;3.38;;
39094;SDS011;24840;47.508;19.376;2023-06-10T11:34:02;7.32;;;3.50;;
39094;SDS011;24840;47.508;19.376;2023-06-10T11:36:30;20.30;;;3.80;;
39094;SDS011;24840;47.508;19.376;2023-06-10T11:38:57;8.73;;;4.72;;
39094;SDS011;24840;47.508;19.376;2023-06-10T11:41:23;12.80;;;5.53;;
39094;SDS011;24840;47.508;19.376;2023-06-10T11:43:53;5.18;;;4.15;;
39094;SDS011;24840;47.508;19.376;2023-06-10T11:46:22;4.15;;;3.75;;
39094;SDS011;24840;47.508;19.376;2023-06-10T11:48:52;5.60;;;4.00;;
39094;SDS011;24840;47.508;19.376;2023-06-10T11:51:22;122.10;;;12.27;;
39094;SDS011;24840;47.508;19.376;2023-06-10T11:53:52;5.50;;;3.60;;
39094;SDS011;24840;47.508;19.376;2023-06-10T11:56:22;9.13;;;3.58;;
39094;SDS011;24840;47.508;19.376;2023-06-10T11:58:52;29.65;;;4.60;;
39094;SDS011;24840;47.508;19.376;2023-06-10T12:01:23;60.97;;;8.63;;
39094;SDS011;24840;47.508;19.376;2023-06-10T12:04:23;238.98;;;24.85;;
39094;SDS011;24840;47.508;19.376;2023-06-10T12:06:51;7.03;;;3.40;;
39094;SDS011;24840;47.508;19.376;2023-06-10T12:09:22;3.78;;;2.83;;
39094;SDS011;24840;47.508;19.376;2023-06-10T12:17:43;2.88;;;2.67;;
39094;SDS011;24840;47.508;19.376;2023-06-10T12:20:08;4.88;;;3.60;;
39094;SDS011;24840;47.508;19.376;2023-06-10T12:22:49;3.72;;;2.83;;
39094;SDS011;24840;47.508;19.376;2023-06-10T12:25:15;3.20;;;2.90;;
39094;SDS011;24840;47.508;19.376;2023-06-10T12:27:50;3.53;;;3.22;;
39094;SDS011;24840;47.508;19.376;2023-06-10T12:30:21;3.35;;;3.00;;
39094;SDS011;24840;47.508;19.376;2023-06-10T12:32:48;4.03;;;3.67;;
39094;SDS011;24840;47.508;19.376;2023-06-10T12:35:18;4.95;;;3.65;;
39094;SDS011;24840;47.508;19.376;2023-06-10T12:38:02;4.43;;;3.35;;
39094;SDS011;24840;47.508;19.376;2023-06-10T12:40:32;3.97;;;3.58;;
39094;SDS011;24840;47.508;19.376;2023-06-10T12:43:02;3.17;;;2.88;;
39094;SDS011;24840;47.508;19.376;2023-06-10T12:45:29;3.03;;;2.83;;
39094;SDS011;24840;47.508;19.376;2023-06-10T12:48:04;2.72;;;2.53;;
39094;SDS011;24840;47.508;19.376;2023-06-10T12:50:37;4.55;;;2.80;;
39094;SDS011;24840;47.508;19.376;2023-06-10T12:53:04;3.40;;;3.15;;
39094;SDS011;24840;47.508;19.376;2023-06-10T12:55:30;3.38;;;3.08;;
39094;SDS011;24840;47.508;19.376;2023-06-10T12:57:57;4.43;;;2.85;;
39094;SDS011;24840;47.508;19.376;2023-06-10T13:00:24;6.10;;;3.38;;
39094;SDS011;24840;47.508;19.376;2023-06-10T13:02:55;11.13;;;5.50;;
39094;SDS011;24840;47.508;19.376;2023-06-10T13:05:22;49.85;;;18.10;;
39094;SDS011;24840;47.508;19.376;2023-06-10T13:07:48;76.80;;;26.70;;
39094;SDS011;24840;47.508;19.376;2023-06-10T13:10:14;30.08;;;13.27;;
39094;SDS011;24840;47.508;19.376;2023-06-10T13:12:41;9.93;;;5.55;;
39094;SDS011;24840;47.508;19.376;2023-06-10T13:15:08;5.00;;;3.97;;
39094;SDS011;24840;47.508;19.376;2023-06-10T13:17:34;6.68;;;4.13;;
39094;SDS011;24840;47.508;19.376;2023-06-10T13:20:02;3.80;;;3.15;;
39094;SDS011;24840;47.508;19.376;2023-06-10T13:22:30;3.47;;;3.17;;
39094;SDS011;24840;47.508;19.376;2023-06-10T13:24:57;4.40;;;3.90;;
39094;SDS011;24840;47.508;19.376;2023-06-10T13:27:24;3.35;;;3.08;;
39094;SDS011;24840;47.508;19.376;2023-06-10T13:29:50;5.65;;;4.05;;
39094;SDS011;24840;47.508;19.376;2023-06-10T13:32:16;6.78;;;5.43;;
39094;SDS011;24840;47.508;19.376;2023-06-10T13:34:41;13.00;;;6.60;;
39094;SDS011;24840;47.508;19.376;2023-06-10T13:37:07;18.70;;;5.70;;
39094;SDS011;24840;47.508;19.376;2023-06-10T13:39:33;5.65;;;5.20;;
39094;SDS011;24840;47.508;19.376;2023-06-10T13:41:58;12.00;;;5.60;;
39094;SDS011;24840;47.508;19.376;2023-06-10T13:44:24;6.70;;;5.30;;
39094;SDS011;24840;47.508;19.376;2023-06-10T13:46:50;4.45;;;4.05;;
39094;SDS011;24840;47.508;19.376;2023-06-10T13:49:16;9.23;;;4.72;;
39094;SDS011;24840;47.508;19.376;2023-06-10T13:51:41;5.60;;;4.15;;
39094;SDS011;24840;47.508;19.376;2023-06-10T13:54:07;5.30;;;3.67;;
39094;SDS011;24840;47.508;19.376;2023-06-10T13:56:33;5.50;;;3.95;;
39094;SDS011;24840;47.508;19.376;2023-06-10T13:59:03;6.55;;;3.67;;
39094;SDS011;24840;47.508;19.376;2023-06-10T14:01:29;3.83;;;3.42;;
39094;SDS011;24840;47.508;19.376;2023-06-10T14:03:54;7.70;;;3.40;;
39094;SDS011;24840;47.508;19.376;2023-06-10T14:06:20;3.60;;;3.30;;
39094;SDS011;24840;47.508;19.376;2023-06-10T14:08:46;33.65;;;5.30;;
39094;SDS011;24840;47.508;19.376;2023-06-10T14:11:12;8.05;;;4.05;;
39094;SDS011;24840;47.508;19.376;2023-06-10T14:13:37;4.68;;;4.03;;
39094;SDS011;24840;47.508;19.376;2023-06-10T14:16:04;5.15;;;4.65;;
39094;SDS011;24840;47.508;19.376;2023-06-10T14:18:29;4.70;;;4.40;;
39094;SDS011;24840;47.508;19.376;2023-06-10T14:20:55;5.53;;;5.03;;
39094;SDS011;24840;47.508;19.376;2023-06-10T14:23:21;5.78;;;5.38;;
39094;SDS011;24840;47.508;19.376;2023-06-10T14:25:47;6.38;;;5.53;;
39094;SDS011;24840;47.508;19.376;2023-06-10T14:28:13;6.10;;;5.57;;
39094;SDS011;24840;47.508;19.376;2023-06-10T14:30:39;6.32;;;5.32;;
39094;SDS011;24840;47.508;19.376;2023-06-10T14:33:05;5.93;;;5.43;;
39094;SDS011;24840;47.508;19.376;2023-06-10T14:35:30;6.30;;;5.72;;
39094;SDS011;24840;47.508;19.376;2023-06-10T14:37:56;9.90;;;6.40;;
39094;SDS011;24840;47.508;19.376;2023-06-10T14:40:22;8.98;;;5.88;;
39094;SDS011;24840;47.508;19.376;2023-06-10T14:42:49;6.88;;;5.57;;
39094;SDS011;24840;47.508;19.376;2023-06-10T14:45:15;8.25;;;4.40;;
39094;SDS011;24840;47.508;19.376;2023-06-10T14:47:41;8.05;;;4.65;;
39094;SDS011;24840;47.508;19.376;2023-06-10T14:50:06;3.58;;;3.03;;
39094;SDS011;24840;47.508;19.376;2023-06-10T14:52:33;4.38;;;3.35;;
39094;SDS011;24840;47.508;19.376;2023-06-10T14:54:58;4.15;;;3.67;;
39094;SDS011;24840;47.508;19.376;2023-06-10T14:57:24;5.47;;;3.50;;